sensor_id;sensor_type;location;lat;lon;timestamp;P1;durP1;ratioP1;P2;durP2;ratioP2
15228;SDS011;7717;47.792;12.076;2022-10-17T00:01:39;4.53;;;2.27;;
15228;SDS011;7717;47.792;12.076;2022-10-17T00:04:04;2.13;;;1.97;;
15228;SDS011;7717;47.792;12.076;2022-10-17T00:06:30;3.97;;;2.07;;
15228;SDS011;7717;47.792;12.076;2022-10-17T00:08:55;2.30;;;2.10;;
15228;SDS011;7717;47.792;12.076;2022-10-17T00:11:21;3.30;;;2.20;;
15228;SDS011;7717;47.792;12.076;2022-10-17T00:13:49;3.10;;;2.23;;
15228;SDS011;7717;47.792;12.076;2022-10-17T00:16:22;4.17;;;2.30;;
15228;SDS011;7717;47.792;12.076;2022-10-17T00:18:49;2.57;;;2.23;;
15228;SDS011;7717;47.792;12.076;2022-10-17T00:21:15;4.27;;;2.50;;
15228;SDS011;7717;47.792;12.076;2022-10-17T00:23:42;4.67;;;2.60;;
15228;SDS011;7717;47.792;12.076;2022-10-17T00:26:08;4.80;;;2.87;;
15228;SDS011;7717;47.792;12.076;2022-10-17T00:28:34;3.60;;;2.40;;
15228;SDS011;7717;47.792;12.076;2022-10-17T00:31:01;9.73;;;2.50;;
15228;SDS011;7717;47.792;12.076;2022-10-17T00:33:28;3.60;;;2.00;;
15228;SDS011;7717;47.792;12.076;2022-10-17T00:36:03;2.53;;;2.07;;
15228;SDS011;7717;47.792;12.076;2022-10-17T00:38:34;2.17;;;1.97;;
15228;SDS011;7717;47.792;12.076;2022-10-17T00:41:00;3.23;;;2.07;;
15228;SDS011;7717;47.792;12.076;2022-10-17T00:43:26;3.70;;;2.10;;
15228;SDS011;7717;47.792;12.076;2022-10-17T00:45:53;2.50;;;1.87;;
15228;SDS011;7717;47.792;12.076;2022-10-17T00:48:19;2.47;;;1.90;;
15228;SDS011;7717;47.792;12.076;2022-10-17T00:50:46;4.33;;;2.13;;
15228;SDS011;7717;47.792;12.076;2022-10-17T00:53:13;2.43;;;2.20;;
15228;SDS011;7717;47.792;12.076;2022-10-17T00:55:44;4.03;;;2.50;;
15228;SDS011;7717;47.792;12.076;2022-10-17T00:58:17;3.70;;;1.87;;
15228;SDS011;7717;47.792;12.076;2022-10-17T01:00:45;2.57;;;1.90;;
15228;SDS011;7717;47.792;12.076;2022-10-17T01:03:17;3.07;;;2.07;;
15228;SDS011;7717;47.792;12.076;2022-10-17T01:05:42;2.23;;;2.03;;
15228;SDS011;7717;47.792;12.076;2022-10-17T01:08:08;4.17;;;2.10;;
15228;SDS011;7717;47.792;12.076;2022-10-17T01:10:38;2.47;;;1.80;;
15228;SDS011;7717;47.792;12.076;2022-10-17T01:13:30;5.80;;;2.10;;
15228;SDS011;7717;47.792;12.076;2022-10-17T01:16:10;1.90;;;1.63;;
15228;SDS011;7717;47.792;12.076;2022-10-17T01:18:50;5.90;;;2.00;;
15228;SDS011;7717;47.792;12.076;2022-10-17T01:21:39;3.03;;;2.20;;
15228;SDS011;7717;47.792;12.076;2022-10-17T01:24:32;7.27;;;1.90;;
15228;SDS011;7717;47.792;12.076;2022-10-17T01:32:53;2.17;;;1.70;;
15228;SDS011;7717;47.792;12.076;2022-10-17T01:38:09;3.47;;;1.60;;
15228;SDS011;7717;47.792;12.076;2022-10-17T01:40:41;2.10;;;1.90;;
15228;SDS011;7717;47.792;12.076;2022-10-17T01:43:33;3.20;;;1.60;;
15228;SDS011;7717;47.792;12.076;2022-10-17T01:46:09;8.10;;;1.80;;
15228;SDS011;7717;47.792;12.076;2022-10-17T01:48:36;3.03;;;2.20;;
15228;SDS011;7717;47.792;12.076;2022-10-17T01:53:48;3.20;;;1.90;;
15228;SDS011;7717;47.792;12.076;2022-10-17T01:56:35;1.87;;;1.77;;
15228;SDS011;7717;47.792;12.076;2022-10-17T01:59:05;1.87;;;1.67;;
15228;SDS011;7717;47.792;12.076;2022-10-17T02:01:46;2.77;;;1.60;;
15228;SDS011;7717;47.792;12.076;2022-10-17T02:04:15;1.93;;;1.83;;
15228;SDS011;7717;47.792;12.076;2022-10-17T02:06:41;2.60;;;1.90;;
15228;SDS011;7717;47.792;12.076;2022-10-17T02:09:16;3.90;;;1.90;;
15228;SDS011;7717;47.792;12.076;2022-10-17T02:17:19;2.93;;;1.60;;
15228;SDS011;7717;47.792;12.076;2022-10-17T02:20:55;3.80;;;1.97;;
15228;SDS011;7717;47.792;12.076;2022-10-17T02:23:09;2.40;;;2.20;;
15228;SDS011;7717;47.792;12.076;2022-10-17T02:25:42;2.00;;;1.80;;
15228;SDS011;7717;47.792;12.076;2022-10-17T02:28:20;3.33;;;1.77;;
15228;SDS011;7717;47.792;12.076;2022-10-17T02:33:47;2.20;;;2.00;;
15228;SDS011;7717;47.792;12.076;2022-10-17T02:36:21;2.10;;;1.73;;
15228;SDS011;7717;47.792;12.076;2022-10-17T02:38:48;1.60;;;1.50;;
15228;SDS011;7717;47.792;12.076;2022-10-17T02:41:17;2.67;;;2.00;;
15228;SDS011;7717;47.792;12.076;2022-10-17T02:43:44;4.67;;;1.93;;
15228;SDS011;7717;47.792;12.076;2022-10-17T02:46:12;5.43;;;2.20;;
15228;SDS011;7717;47.792;12.076;2022-10-17T02:48:49;6.93;;;1.70;;
15228;SDS011;7717;47.792;12.076;2022-10-17T02:56:40;2.17;;;1.63;;
15228;SDS011;7717;47.792;12.076;2022-10-17T02:59:11;1.70;;;1.60;;
15228;SDS011;7717;47.792;12.076;2022-10-17T03:01:39;2.00;;;1.90;;
15228;SDS011;7717;47.792;12.076;2022-10-17T03:06:36;3.37;;;1.60;;
15228;SDS011;7717;47.792;12.076;2022-10-17T03:09:02;2.27;;;1.90;;
15228;SDS011;7717;47.792;12.076;2022-10-17T03:11:28;3.50;;;2.03;;
15228;SDS011;7717;47.792;12.076;2022-10-17T03:13:53;4.13;;;1.90;;
15228;SDS011;7717;47.792;12.076;2022-10-17T03:16:19;2.73;;;1.60;;
15228;SDS011;7717;47.792;12.076;2022-10-17T03:18:44;3.77;;;2.03;;
15228;SDS011;7717;47.792;12.076;2022-10-17T03:21:09;3.80;;;1.63;;
15228;SDS011;7717;47.792;12.076;2022-10-17T03:23:35;3.57;;;1.80;;
15228;SDS011;7717;47.792;12.076;2022-10-17T03:26:05;2.27;;;2.07;;
15228;SDS011;7717;47.792;12.076;2022-10-17T03:28:31;2.17;;;1.90;;
15228;SDS011;7717;47.792;12.076;2022-10-17T03:30:57;3.10;;;1.97;;
15228;SDS011;7717;47.792;12.076;2022-10-17T03:33:22;5.33;;;2.00;;
15228;SDS011;7717;47.792;12.076;2022-10-17T03:35:48;2.27;;;1.70;;
15228;SDS011;7717;47.792;12.076;2022-10-17T03:38:13;2.20;;;2.00;;
15228;SDS011;7717;47.792;12.076;2022-10-17T03:40:42;4.50;;;2.23;;
15228;SDS011;7717;47.792;12.076;2022-10-17T03:43:07;4.37;;;2.50;;
15228;SDS011;7717;47.792;12.076;2022-10-17T03:45:32;4.10;;;2.37;;
15228;SDS011;7717;47.792;12.076;2022-10-17T03:47:58;2.80;;;1.70;;
15228;SDS011;7717;47.792;12.076;2022-10-17T03:50:23;1.93;;;1.83;;
15228;SDS011;7717;47.792;12.076;2022-10-17T03:52:49;2.73;;;1.83;;
15228;SDS011;7717;47.792;12.076;2022-10-17T03:55:15;2.70;;;1.60;;
15228;SDS011;7717;47.792;12.076;2022-10-17T03:57:43;3.17;;;1.67;;
15228;SDS011;7717;47.792;12.076;2022-10-17T04:00:09;2.13;;;1.50;;
15228;SDS011;7717;47.792;12.076;2022-10-17T04:02:35;1.67;;;1.53;;
15228;SDS011;7717;47.792;12.076;2022-10-17T04:05:00;3.07;;;1.67;;
15228;SDS011;7717;47.792;12.076;2022-10-17T04:07:26;1.60;;;1.50;;
15228;SDS011;7717;47.792;12.076;2022-10-17T04:09:52;3.17;;;2.07;;
15228;SDS011;7717;47.792;12.076;2022-10-17T04:12:17;3.30;;;2.37;;
15228;SDS011;7717;47.792;12.076;2022-10-17T04:14:43;2.80;;;2.20;;
15228;SDS011;7717;47.792;12.076;2022-10-17T04:17:08;2.53;;;2.30;;
15228;SDS011;7717;47.792;12.076;2022-10-17T04:19:34;2.73;;;2.30;;
15228;SDS011;7717;47.792;12.076;2022-10-17T04:21:59;3.30;;;2.20;;
15228;SDS011;7717;47.792;12.076;2022-10-17T04:24:27;4.90;;;3.30;;
15228;SDS011;7717;47.792;12.076;2022-10-17T04:26:57;4.53;;;4.13;;
15228;SDS011;7717;47.792;12.076;2022-10-17T04:29:24;11.93;;;7.17;;
15228;SDS011;7717;47.792;12.076;2022-10-17T04:31:50;11.23;;;4.80;;
15228;SDS011;7717;47.792;12.076;2022-10-17T04:34:16;2.70;;;1.80;;
15228;SDS011;7717;47.792;12.076;2022-10-17T04:36:44;2.20;;;1.83;;
15228;SDS011;7717;47.792;12.076;2022-10-17T04:39:11;2.07;;;1.87;;
15228;SDS011;7717;47.792;12.076;2022-10-17T04:41:36;2.80;;;1.90;;
15228;SDS011;7717;47.792;12.076;2022-10-17T04:44:02;1.80;;;1.70;;
15228;SDS011;7717;47.792;12.076;2022-10-17T04:46:27;2.57;;;1.90;;
15228;SDS011;7717;47.792;12.076;2022-10-17T04:48:53;1.50;;;1.40;;
15228;SDS011;7717;47.792;12.076;2022-10-17T04:51:19;3.50;;;1.90;;
15228;SDS011;7717;47.792;12.076;2022-10-17T04:53:44;2.63;;;2.23;;
15228;SDS011;7717;47.792;12.076;2022-10-17T04:56:11;2.43;;;1.90;;
15228;SDS011;7717;47.792;12.076;2022-10-17T04:58:39;3.77;;;2.53;;
15228;SDS011;7717;47.792;12.076;2022-10-17T05:01:06;3.00;;;2.23;;
15228;SDS011;7717;47.792;12.076;2022-10-17T05:03:33;3.20;;;2.33;;
15228;SDS011;7717;47.792;12.076;2022-10-17T05:06:33;2.87;;;2.53;;
15228;SDS011;7717;47.792;12.076;2022-10-17T05:08:56;3.70;;;3.00;;
15228;SDS011;7717;47.792;12.076;2022-10-17T05:11:25;4.73;;;2.97;;
15228;SDS011;7717;47.792;12.076;2022-10-17T05:13:56;4.47;;;3.20;;
15228;SDS011;7717;47.792;12.076;2022-10-17T05:16:23;3.70;;;2.87;;
15228;SDS011;7717;47.792;12.076;2022-10-17T05:18:56;5.17;;;3.20;;
15228;SDS011;7717;47.792;12.076;2022-10-17T05:21:23;4.50;;;3.20;;
15228;SDS011;7717;47.792;12.076;2022-10-17T05:23:50;5.80;;;3.50;;
15228;SDS011;7717;47.792;12.076;2022-10-17T05:26:15;3.47;;;3.10;;
15228;SDS011;7717;47.792;12.076;2022-10-17T05:28:41;5.13;;;3.80;;
15228;SDS011;7717;47.792;12.076;2022-10-17T05:31:07;5.27;;;3.77;;
15228;SDS011;7717;47.792;12.076;2022-10-17T05:33:33;7.90;;;4.23;;
15228;SDS011;7717;47.792;12.076;2022-10-17T05:35:59;5.23;;;3.80;;
15228;SDS011;7717;47.792;12.076;2022-10-17T05:38:25;3.43;;;3.13;;
15228;SDS011;7717;47.792;12.076;2022-10-17T05:40:51;5.13;;;3.60;;
15228;SDS011;7717;47.792;12.076;2022-10-17T05:43:20;3.70;;;3.17;;
15228;SDS011;7717;47.792;12.076;2022-10-17T05:45:45;4.53;;;3.23;;
15228;SDS011;7717;47.792;12.076;2022-10-17T05:48:11;4.73;;;3.13;;
15228;SDS011;7717;47.792;12.076;2022-10-17T05:50:36;4.17;;;3.23;;
15228;SDS011;7717;47.792;12.076;2022-10-17T05:53:01;2.70;;;2.50;;
15228;SDS011;7717;47.792;12.076;2022-10-17T05:55:27;2.80;;;2.33;;
15228;SDS011;7717;47.792;12.076;2022-10-17T05:57:52;3.00;;;2.00;;
15228;SDS011;7717;47.792;12.076;2022-10-17T06:00:18;2.50;;;1.67;;
15228;SDS011;7717;47.792;12.076;2022-10-17T06:02:44;2.10;;;1.90;;
15228;SDS011;7717;47.792;12.076;2022-10-17T06:05:10;1.77;;;1.67;;
15228;SDS011;7717;47.792;12.076;2022-10-17T06:07:36;3.40;;;2.07;;
15228;SDS011;7717;47.792;12.076;2022-10-17T06:10:02;3.90;;;1.80;;
15228;SDS011;7717;47.792;12.076;2022-10-17T06:12:28;1.60;;;1.50;;
15228;SDS011;7717;47.792;12.076;2022-10-17T06:14:53;2.93;;;2.23;;
15228;SDS011;7717;47.792;12.076;2022-10-17T06:17:18;3.07;;;2.10;;
15228;SDS011;7717;47.792;12.076;2022-10-17T06:19:44;3.07;;;2.20;;
15228;SDS011;7717;47.792;12.076;2022-10-17T06:22:09;2.47;;;2.07;;
15228;SDS011;7717;47.792;12.076;2022-10-17T06:24:34;3.27;;;2.23;;
15228;SDS011;7717;47.792;12.076;2022-10-17T06:27:00;2.60;;;2.23;;
15228;SDS011;7717;47.792;12.076;2022-10-17T06:29:25;5.83;;;2.57;;
15228;SDS011;7717;47.792;12.076;2022-10-17T06:31:50;2.37;;;2.17;;
15228;SDS011;7717;47.792;12.076;2022-10-17T06:34:16;2.40;;;2.20;;
15228;SDS011;7717;47.792;12.076;2022-10-17T06:36:41;3.37;;;2.77;;
15228;SDS011;7717;47.792;12.076;2022-10-17T06:39:07;2.50;;;2.30;;
15228;SDS011;7717;47.792;12.076;2022-10-17T06:41:32;5.93;;;2.90;;
15228;SDS011;7717;47.792;12.076;2022-10-17T06:43:57;4.07;;;2.57;;
15228;SDS011;7717;47.792;12.076;2022-10-17T06:46:23;3.00;;;2.80;;
15228;SDS011;7717;47.792;12.076;2022-10-17T06:48:50;3.30;;;3.00;;
15228;SDS011;7717;47.792;12.076;2022-10-17T06:51:16;4.57;;;2.87;;
15228;SDS011;7717;47.792;12.076;2022-10-17T06:53:42;4.30;;;3.50;;
15228;SDS011;7717;47.792;12.076;2022-10-17T06:56:07;3.43;;;2.87;;
15228;SDS011;7717;47.792;12.076;2022-10-17T06:58:35;3.50;;;3.20;;
15228;SDS011;7717;47.792;12.076;2022-10-17T07:01:10;3.33;;;2.77;;
15228;SDS011;7717;47.792;12.076;2022-10-17T07:03:37;4.87;;;2.93;;
15228;SDS011;7717;47.792;12.076;2022-10-17T07:06:02;5.10;;;3.77;;
15228;SDS011;7717;47.792;12.076;2022-10-17T07:08:28;5.53;;;2.60;;
15228;SDS011;7717;47.792;12.076;2022-10-17T07:10:54;4.90;;;3.20;;
15228;SDS011;7717;47.792;12.076;2022-10-17T07:13:20;5.43;;;3.33;;
15228;SDS011;7717;47.792;12.076;2022-10-17T07:15:45;23.43;;;8.70;;
15228;SDS011;7717;47.792;12.076;2022-10-17T07:18:11;11.20;;;8.30;;
15228;SDS011;7717;47.792;12.076;2022-10-17T07:20:37;6.43;;;3.57;;
15228;SDS011;7717;47.792;12.076;2022-10-17T07:23:02;3.87;;;3.20;;
15228;SDS011;7717;47.792;12.076;2022-10-17T07:25:28;3.80;;;3.03;;
15228;SDS011;7717;47.792;12.076;2022-10-17T07:27:54;4.13;;;3.17;;
15228;SDS011;7717;47.792;12.076;2022-10-17T07:30:20;3.97;;;3.10;;
15228;SDS011;7717;47.792;12.076;2022-10-17T07:32:46;3.60;;;3.13;;
15228;SDS011;7717;47.792;12.076;2022-10-17T07:35:11;4.63;;;3.20;;
15228;SDS011;7717;47.792;12.076;2022-10-17T07:37:37;5.10;;;3.00;;
15228;SDS011;7717;47.792;12.076;2022-10-17T07:40:04;3.27;;;2.97;;
15228;SDS011;7717;47.792;12.076;2022-10-17T07:42:31;3.50;;;3.20;;
15228;SDS011;7717;47.792;12.076;2022-10-17T07:44:57;3.80;;;3.00;;
15228;SDS011;7717;47.792;12.076;2022-10-17T07:47:23;4.30;;;3.23;;
15228;SDS011;7717;47.792;12.076;2022-10-17T07:49:48;4.27;;;3.27;;
15228;SDS011;7717;47.792;12.076;2022-10-17T07:52:14;4.00;;;3.23;;
15228;SDS011;7717;47.792;12.076;2022-10-17T07:54:40;5.97;;;3.87;;
15228;SDS011;7717;47.792;12.076;2022-10-17T07:57:06;5.17;;;3.40;;
15228;SDS011;7717;47.792;12.076;2022-10-17T07:59:33;3.13;;;2.83;;
15228;SDS011;7717;47.792;12.076;2022-10-17T08:01:59;3.53;;;3.00;;
15228;SDS011;7717;47.792;12.076;2022-10-17T08:04:25;4.27;;;3.30;;
15228;SDS011;7717;47.792;12.076;2022-10-17T08:06:52;5.23;;;3.20;;
15228;SDS011;7717;47.792;12.076;2022-10-17T08:09:18;3.07;;;2.77;;
15228;SDS011;7717;47.792;12.076;2022-10-17T08:11:43;3.87;;;2.80;;
15228;SDS011;7717;47.792;12.076;2022-10-17T08:14:10;2.90;;;2.60;;
15228;SDS011;7717;47.792;12.076;2022-10-17T08:16:36;3.10;;;2.80;;
15228;SDS011;7717;47.792;12.076;2022-10-17T08:19:02;4.90;;;3.20;;
15228;SDS011;7717;47.792;12.076;2022-10-17T08:21:28;3.57;;;3.00;;
15228;SDS011;7717;47.792;12.076;2022-10-17T08:23:54;3.20;;;2.67;;
15228;SDS011;7717;47.792;12.076;2022-10-17T08:26:19;4.23;;;2.90;;
15228;SDS011;7717;47.792;12.076;2022-10-17T08:28:45;3.00;;;2.60;;
15228;SDS011;7717;47.792;12.076;2022-10-17T08:31:12;2.77;;;2.57;;
15228;SDS011;7717;47.792;12.076;2022-10-17T08:33:39;3.20;;;2.90;;
15228;SDS011;7717;47.792;12.076;2022-10-17T08:36:06;4.80;;;4.20;;
15228;SDS011;7717;47.792;12.076;2022-10-17T08:38:33;3.67;;;2.90;;
15228;SDS011;7717;47.792;12.076;2022-10-17T08:41:01;6.27;;;3.23;;
15228;SDS011;7717;47.792;12.076;2022-10-17T08:43:32;4.97;;;3.27;;
15228;SDS011;7717;47.792;12.076;2022-10-17T08:46:15;4.70;;;3.13;;
15228;SDS011;7717;47.792;12.076;2022-10-17T08:48:44;5.10;;;2.80;;
15228;SDS011;7717;47.792;12.076;2022-10-17T08:51:16;6.10;;;2.70;;
15228;SDS011;7717;47.792;12.076;2022-10-17T08:54:37;2.63;;;2.40;;
15228;SDS011;7717;47.792;12.076;2022-10-17T08:56:49;2.90;;;2.70;;
15228;SDS011;7717;47.792;12.076;2022-10-17T08:59:19;5.50;;;3.03;;
15228;SDS011;7717;47.792;12.076;2022-10-17T09:01:49;2.83;;;2.63;;
15228;SDS011;7717;47.792;12.076;2022-10-17T09:04:33;6.03;;;3.10;;
15228;SDS011;7717;47.792;12.076;2022-10-17T09:15:43;3.97;;;3.03;;
15228;SDS011;7717;47.792;12.076;2022-10-17T09:18:32;2.40;;;2.20;;
15228;SDS011;7717;47.792;12.076;2022-10-17T09:21:16;3.33;;;2.67;;
15228;SDS011;7717;47.792;12.076;2022-10-17T09:23:52;5.07;;;3.00;;
15228;SDS011;7717;47.792;12.076;2022-10-17T09:26:22;3.75;;;2.90;;
15228;SDS011;7717;47.792;12.076;2022-10-17T09:28:51;3.33;;;2.90;;
15228;SDS011;7717;47.792;12.076;2022-10-17T09:31:23;3.08;;;2.60;;
15228;SDS011;7717;47.792;12.076;2022-10-17T09:33:56;3.03;;;2.63;;
15228;SDS011;7717;47.792;12.076;2022-10-17T09:36:27;3.17;;;2.67;;
15228;SDS011;7717;47.792;12.076;2022-10-17T09:39:02;3.33;;;2.58;;
15228;SDS011;7717;47.792;12.076;2022-10-17T09:41:33;4.07;;;2.50;;
15228;SDS011;7717;47.792;12.076;2022-10-17T09:46:49;3.30;;;2.50;;
15228;SDS011;7717;47.792;12.076;2022-10-17T09:49:27;4.70;;;2.78;;
15228;SDS011;7717;47.792;12.076;2022-10-17T09:52:02;3.60;;;2.80;;
15228;SDS011;7717;47.792;12.076;2022-10-17T09:57:08;2.78;;;2.58;;
15228;SDS011;7717;47.792;12.076;2022-10-17T09:59:39;3.03;;;2.78;;
15228;SDS011;7717;47.792;12.076;2022-10-17T10:02:11;2.50;;;2.28;;
15228;SDS011;7717;47.792;12.076;2022-10-17T10:04:53;2.72;;;2.53;;
15228;SDS011;7717;47.792;12.076;2022-10-17T10:07:18;3.50;;;3.00;;
15228;SDS011;7717;47.792;12.076;2022-10-17T10:09:45;3.78;;;2.70;;
15228;SDS011;7717;47.792;12.076;2022-10-17T10:12:21;3.72;;;2.40;;
15228;SDS011;7717;47.792;12.076;2022-10-17T10:14:49;2.92;;;2.20;;
15228;SDS011;7717;47.792;12.076;2022-10-17T10:17:34;2.58;;;2.42;;
15228;SDS011;7717;47.792;12.076;2022-10-17T10:23:06;3.10;;;2.80;;
15228;SDS011;7717;47.792;12.076;2022-10-17T10:25:37;2.88;;;2.67;;
15228;SDS011;7717;47.792;12.076;2022-10-17T10:28:09;3.00;;;2.72;;
15228;SDS011;7717;47.792;12.076;2022-10-17T10:30:36;3.50;;;2.55;;
15228;SDS011;7717;47.792;12.076;2022-10-17T10:33:01;2.75;;;2.55;;
15228;SDS011;7717;47.792;12.076;2022-10-17T10:35:31;3.15;;;2.92;;
15228;SDS011;7717;47.792;12.076;2022-10-17T10:38:00;3.42;;;2.60;;
15228;SDS011;7717;47.792;12.076;2022-10-17T10:40:34;3.17;;;2.47;;
15228;SDS011;7717;47.792;12.076;2022-10-17T10:43:15;3.83;;;2.70;;
15228;SDS011;7717;47.792;12.076;2022-10-17T10:45:57;5.90;;;3.20;;
15228;SDS011;7717;47.792;12.076;2022-10-17T10:48:24;3.42;;;2.88;;
15228;SDS011;7717;47.792;12.076;2022-10-17T10:56:18;3.20;;;2.60;;
15228;SDS011;7717;47.792;12.076;2022-10-17T10:58:51;3.05;;;2.75;;
15228;SDS011;7717;47.792;12.076;2022-10-17T11:01:28;3.83;;;2.90;;
15228;SDS011;7717;47.792;12.076;2022-10-17T11:06:45;2.70;;;2.50;;
15228;SDS011;7717;47.792;12.076;2022-10-17T11:11:39;3.55;;;2.90;;
15228;SDS011;7717;47.792;12.076;2022-10-17T11:19:33;3.10;;;2.90;;
15228;SDS011;7717;47.792;12.076;2022-10-17T11:25:13;3.35;;;3.05;;
15228;SDS011;7717;47.792;12.076;2022-10-17T11:27:46;3.38;;;3.15;;
15228;SDS011;7717;47.792;12.076;2022-10-17T11:30:12;3.28;;;2.80;;
15228;SDS011;7717;47.792;12.076;2022-10-17T11:32:46;4.00;;;2.50;;
15228;SDS011;7717;47.792;12.076;2022-10-17T11:35:25;3.25;;;2.95;;
15228;SDS011;7717;47.792;12.076;2022-10-17T11:37:56;4.13;;;2.90;;
15228;SDS011;7717;47.792;12.076;2022-10-17T11:40:37;4.60;;;3.20;;
15228;SDS011;7717;47.792;12.076;2022-10-17T11:43:09;3.10;;;2.80;;
15228;SDS011;7717;47.792;12.076;2022-10-17T11:45:47;3.75;;;2.63;;
15228;SDS011;7717;47.792;12.076;2022-10-17T11:48:22;2.90;;;2.47;;
15228;SDS011;7717;47.792;12.076;2022-10-17T11:50:53;3.88;;;2.80;;
15228;SDS011;7717;47.792;12.076;2022-10-17T11:53:30;3.45;;;2.70;;
15228;SDS011;7717;47.792;12.076;2022-10-17T11:56:07;3.00;;;2.80;;
15228;SDS011;7717;47.792;12.076;2022-10-17T12:01:31;4.10;;;2.75;;
15228;SDS011;7717;47.792;12.076;2022-10-17T12:11:52;3.00;;;2.78;;
15228;SDS011;7717;47.792;12.076;2022-10-17T12:14:43;2.88;;;2.67;;
15228;SDS011;7717;47.792;12.076;2022-10-17T12:22:51;2.97;;;2.63;;
15228;SDS011;7717;47.792;12.076;2022-10-17T12:25:49;3.85;;;2.90;;
15228;SDS011;7717;47.792;12.076;2022-10-17T12:28:28;4.53;;;2.80;;
15228;SDS011;7717;47.792;12.076;2022-10-17T12:30:57;4.28;;;3.03;;
15228;SDS011;7717;47.792;12.076;2022-10-17T12:42:19;3.03;;;2.83;;
15228;SDS011;7717;47.792;12.076;2022-10-17T12:46:40;3.33;;;3.03;;
15228;SDS011;7717;47.792;12.076;2022-10-17T12:54:39;3.35;;;2.97;;
15228;SDS011;7717;47.792;12.076;2022-10-17T12:59:51;3.40;;;2.85;;
15228;SDS011;7717;47.792;12.076;2022-10-17T13:02:19;2.80;;;2.60;;
15228;SDS011;7717;47.792;12.076;2022-10-17T13:04:47;3.42;;;3.00;;
15228;SDS011;7717;47.792;12.076;2022-10-17T13:07:19;3.35;;;2.90;;
15228;SDS011;7717;47.792;12.076;2022-10-17T13:09:46;3.28;;;2.58;;
15228;SDS011;7717;47.792;12.076;2022-10-17T13:12:22;3.42;;;3.13;;
15228;SDS011;7717;47.792;12.076;2022-10-17T13:14:51;4.03;;;3.17;;
15228;SDS011;7717;47.792;12.076;2022-10-17T13:17:26;3.08;;;2.88;;
15228;SDS011;7717;47.792;12.076;2022-10-17T13:19:54;4.40;;;2.70;;
15228;SDS011;7717;47.792;12.076;2022-10-17T13:22:26;3.20;;;2.97;;
15228;SDS011;7717;47.792;12.076;2022-10-17T13:25:13;2.95;;;2.67;;
15228;SDS011;7717;47.792;12.076;2022-10-17T13:27:41;2.90;;;2.70;;
15228;SDS011;7717;47.792;12.076;2022-10-17T13:30:24;3.15;;;2.58;;
15228;SDS011;7717;47.792;12.076;2022-10-17T13:32:54;3.05;;;2.85;;
15228;SDS011;7717;47.792;12.076;2022-10-17T13:35:27;3.20;;;2.90;;
15228;SDS011;7717;47.792;12.076;2022-10-17T13:37:55;3.03;;;2.72;;
15228;SDS011;7717;47.792;12.076;2022-10-17T13:40:27;7.32;;;4.00;;
15228;SDS011;7717;47.792;12.076;2022-10-17T13:42:55;2.92;;;2.72;;
15228;SDS011;7717;47.792;12.076;2022-10-17T13:45:29;3.08;;;2.88;;
15228;SDS011;7717;47.792;12.076;2022-10-17T13:47:55;10.32;;;4.30;;
15228;SDS011;7717;47.792;12.076;2022-10-17T13:50:31;3.95;;;3.63;;
15228;SDS011;7717;47.792;12.076;2022-10-17T13:53:06;3.55;;;2.72;;
15228;SDS011;7717;47.792;12.076;2022-10-17T13:55:49;3.15;;;2.85;;
15228;SDS011;7717;47.792;12.076;2022-10-17T13:58:17;4.72;;;3.30;;
15228;SDS011;7717;47.792;12.076;2022-10-17T14:00:43;4.13;;;2.95;;
15228;SDS011;7717;47.792;12.076;2022-10-17T14:03:10;3.03;;;2.80;;
15228;SDS011;7717;47.792;12.076;2022-10-17T14:05:56;4.57;;;2.70;;
15228;SDS011;7717;47.792;12.076;2022-10-17T14:08:30;2.97;;;2.67;;
15228;SDS011;7717;47.792;12.076;2022-10-17T14:10:57;3.17;;;2.88;;
15228;SDS011;7717;47.792;12.076;2022-10-17T14:13:24;3.30;;;3.10;;
15228;SDS011;7717;47.792;12.076;2022-10-17T14:15:57;3.13;;;2.65;;
15228;SDS011;7717;47.792;12.076;2022-10-17T14:18:26;3.10;;;2.90;;
15228;SDS011;7717;47.792;12.076;2022-10-17T14:20:53;4.68;;;3.38;;
15228;SDS011;7717;47.792;12.076;2022-10-17T14:23:32;3.22;;;2.92;;
15228;SDS011;7717;47.792;12.076;2022-10-17T14:28:31;3.60;;;3.08;;
15228;SDS011;7717;47.792;12.076;2022-10-17T14:33:47;2.70;;;2.50;;
15228;SDS011;7717;47.792;12.076;2022-10-17T14:36:14;5.20;;;3.22;;
15228;SDS011;7717;47.792;12.076;2022-10-17T14:38:43;5.40;;;3.35;;
15228;SDS011;7717;47.792;12.076;2022-10-17T14:41:18;4.75;;;3.38;;
15228;SDS011;7717;47.792;12.076;2022-10-17T14:44:07;4.53;;;2.90;;
15228;SDS011;7717;47.792;12.076;2022-10-17T14:46:44;3.78;;;3.03;;
15228;SDS011;7717;47.792;12.076;2022-10-17T14:49:16;4.05;;;3.45;;
15228;SDS011;7717;47.792;12.076;2022-10-17T14:54:50;6.55;;;3.00;;
15228;SDS011;7717;47.792;12.076;2022-10-17T15:00:05;3.13;;;2.90;;
15228;SDS011;7717;47.792;12.076;2022-10-17T15:02:31;5.28;;;2.90;;
15228;SDS011;7717;47.792;12.076;2022-10-17T15:04:56;6.95;;;2.78;;
15228;SDS011;7717;47.792;12.076;2022-10-17T15:07:21;4.70;;;3.10;;
15228;SDS011;7717;47.792;12.076;2022-10-17T15:09:48;5.47;;;3.00;;
15228;SDS011;7717;47.792;12.076;2022-10-17T15:12:18;4.50;;;2.85;;
15228;SDS011;7717;47.792;12.076;2022-10-17T15:14:46;6.05;;;2.92;;
15228;SDS011;7717;47.792;12.076;2022-10-17T15:17:13;5.43;;;2.75;;
15228;SDS011;7717;47.792;12.076;2022-10-17T15:19:41;3.28;;;3.00;;
15228;SDS011;7717;47.792;12.076;2022-10-17T15:22:06;5.57;;;2.80;;
15228;SDS011;7717;47.792;12.076;2022-10-17T15:24:31;8.38;;;3.28;;
15228;SDS011;7717;47.792;12.076;2022-10-17T15:26:57;6.30;;;3.05;;
15228;SDS011;7717;47.792;12.076;2022-10-17T15:29:22;7.82;;;3.05;;
15228;SDS011;7717;47.792;12.076;2022-10-17T15:31:47;4.30;;;2.85;;
15228;SDS011;7717;47.792;12.076;2022-10-17T15:34:13;5.85;;;3.08;;
15228;SDS011;7717;47.792;12.076;2022-10-17T15:36:39;5.15;;;3.10;;
15228;SDS011;7717;47.792;12.076;2022-10-17T15:39:05;9.25;;;3.17;;
15228;SDS011;7717;47.792;12.076;2022-10-17T15:41:31;5.65;;;3.15;;
15228;SDS011;7717;47.792;12.076;2022-10-17T15:43:57;5.95;;;3.15;;
15228;SDS011;7717;47.792;12.076;2022-10-17T15:46:23;7.40;;;2.95;;
15228;SDS011;7717;47.792;12.076;2022-10-17T15:48:51;8.75;;;3.00;;
15228;SDS011;7717;47.792;12.076;2022-10-17T15:51:17;7.18;;;3.03;;
15228;SDS011;7717;47.792;12.076;2022-10-17T15:53:42;5.95;;;3.38;;
15228;SDS011;7717;47.792;12.076;2022-10-17T15:56:18;3.45;;;3.10;;
15228;SDS011;7717;47.792;12.076;2022-10-17T15:58:48;5.50;;;3.60;;
15228;SDS011;7717;47.792;12.076;2022-10-17T16:01:18;3.97;;;3.10;;
15228;SDS011;7717;47.792;12.076;2022-10-17T16:03:46;4.50;;;3.40;;
15228;SDS011;7717;47.792;12.076;2022-10-17T16:06:13;6.77;;;3.37;;
15228;SDS011;7717;47.792;12.076;2022-10-17T16:08:38;4.40;;;4.00;;
15228;SDS011;7717;47.792;12.076;2022-10-17T16:11:03;4.27;;;3.40;;
15228;SDS011;7717;47.792;12.076;2022-10-17T16:13:29;4.00;;;3.43;;
15228;SDS011;7717;47.792;12.076;2022-10-17T16:15:55;3.77;;;3.30;;
15228;SDS011;7717;47.792;12.076;2022-10-17T16:18:20;7.53;;;3.70;;
15228;SDS011;7717;47.792;12.076;2022-10-17T16:20:46;7.43;;;3.40;;
15228;SDS011;7717;47.792;12.076;2022-10-17T16:23:11;5.27;;;3.63;;
15228;SDS011;7717;47.792;12.076;2022-10-17T16:25:38;4.67;;;3.57;;
15228;SDS011;7717;47.792;12.076;2022-10-17T16:28:04;3.87;;;3.50;;
15228;SDS011;7717;47.792;12.076;2022-10-17T16:30:32;4.07;;;3.50;;
15228;SDS011;7717;47.792;12.076;2022-10-17T16:33:06;5.93;;;3.60;;
15228;SDS011;7717;47.792;12.076;2022-10-17T16:35:32;7.53;;;3.57;;
15228;SDS011;7717;47.792;12.076;2022-10-17T16:37:57;4.77;;;3.17;;
15228;SDS011;7717;47.792;12.076;2022-10-17T16:40:23;6.57;;;3.80;;
15228;SDS011;7717;47.792;12.076;2022-10-17T16:42:48;6.27;;;3.57;;
15228;SDS011;7717;47.792;12.076;2022-10-17T16:45:17;6.03;;;4.13;;
15228;SDS011;7717;47.792;12.076;2022-10-17T16:47:44;5.20;;;4.47;;
15228;SDS011;7717;47.792;12.076;2022-10-17T16:50:10;9.03;;;5.30;;
15228;SDS011;7717;47.792;12.076;2022-10-17T16:52:36;6.07;;;4.63;;